Bissett, Canada
Current Conditions -  °F | °C
As of 3:00 PM on Friday 24 Oct 2014 (Local Time) from CYRL Reporting Station
Broken Clouds Broken Clouds  
Wind Chill: 59°   Ceiling: 8000
Heat Index: 59°   Visibility: 15mi
Dew Point: 43°   Wind: 8mph
Humidity: 55%   Direction: 210°SSW
Pressure: 29.52"   Gusts: NA
Location:  51.02°N, 95.67°W
Report Text: CYRL 242000Z 21007KT 15SM FEW040 SCT065 BKN080 BKN120 BKN240 15/06 A2952 RMK SC2SC2AC1AC1CI1 CI TR SLP003 DENSITY ALT 2000FT
Loading
Personal Weather Stations






























Interactive Weather Map New forecast layout! Learn more

10-Day Weather Forecast

Advertisements
Track Severe Weather on mobile